sensor_id;sensor_type;location;lat;lon;timestamp;P1;durP1;ratioP1;P2;durP2;ratioP2
22415;SDS011;12204;50.600;4.608;2023-04-03T00:02:24;4.63;;;1.20;;
22415;SDS011;12204;50.600;4.608;2023-04-03T00:07:27;2.90;;;1.25;;
22415;SDS011;12204;50.600;4.608;2023-04-03T00:12:32;3.38;;;1.27;;
22415;SDS011;12204;50.600;4.608;2023-04-03T00:17:36;3.25;;;1.13;;
22415;SDS011;12204;50.600;4.608;2023-04-03T00:22:39;2.83;;;1.10;;
22415;SDS011;12204;50.600;4.608;2023-04-03T00:27:44;3.13;;;1.20;;
22415;SDS011;12204;50.600;4.608;2023-04-03T00:32:48;1.92;;;1.10;;
22415;SDS011;12204;50.600;4.608;2023-04-03T00:37:53;2.67;;;1.20;;
22415;SDS011;12204;50.600;4.608;2023-04-03T00:42:59;3.97;;;1.40;;
22415;SDS011;12204;50.600;4.608;2023-04-03T00:48:04;2.72;;;1.15;;
22415;SDS011;12204;50.600;4.608;2023-04-03T00:53:15;3.10;;;1.17;;
22415;SDS011;12204;50.600;4.608;2023-04-03T00:58:25;4.70;;;1.40;;
22415;SDS011;12204;50.600;4.608;2023-04-03T01:03:34;2.75;;;1.27;;
22415;SDS011;12204;50.600;4.608;2023-04-03T01:08:39;3.28;;;1.20;;
22415;SDS011;12204;50.600;4.608;2023-04-03T01:13:44;3.05;;;1.27;;
22415;SDS011;12204;50.600;4.608;2023-04-03T01:18:47;2.75;;;1.25;;
22415;SDS011;12204;50.600;4.608;2023-04-03T01:23:53;3.10;;;1.20;;
22415;SDS011;12204;50.600;4.608;2023-04-03T01:29:15;2.83;;;1.30;;
22415;SDS011;12204;50.600;4.608;2023-04-03T01:34:21;3.03;;;1.30;;
22415;SDS011;12204;50.600;4.608;2023-04-03T01:39:26;2.92;;;1.10;;
22415;SDS011;12204;50.600;4.608;2023-04-03T01:44:30;2.78;;;1.15;;
22415;SDS011;12204;50.600;4.608;2023-04-03T01:49:35;3.80;;;1.25;;
22415;SDS011;12204;50.600;4.608;2023-04-03T01:54:39;3.40;;;1.40;;
22415;SDS011;12204;50.600;4.608;2023-04-03T01:59:42;3.55;;;1.30;;
22415;SDS011;12204;50.600;4.608;2023-04-03T02:04:48;2.58;;;1.05;;
22415;SDS011;12204;50.600;4.608;2023-04-03T02:09:52;2.72;;;1.30;;
22415;SDS011;12204;50.600;4.608;2023-04-03T02:14:56;2.92;;;1.20;;
22415;SDS011;12204;50.600;4.608;2023-04-03T02:20:02;2.72;;;1.15;;
22415;SDS011;12204;50.600;4.608;2023-04-03T02:25:07;3.40;;;1.38;;
22415;SDS011;12204;50.600;4.608;2023-04-03T02:30:12;3.90;;;1.45;;
22415;SDS011;12204;50.600;4.608;2023-04-03T02:35:19;2.97;;;1.20;;
22415;SDS011;12204;50.600;4.608;2023-04-03T02:40:23;3.03;;;1.33;;
22415;SDS011;12204;50.600;4.608;2023-04-03T02:45:26;2.85;;;1.20;;
22415;SDS011;12204;50.600;4.608;2023-04-03T02:50:31;2.50;;;1.13;;
22415;SDS011;12204;50.600;4.608;2023-04-03T02:55:35;2.33;;;1.08;;
22415;SDS011;12204;50.600;4.608;2023-04-03T03:00:39;2.83;;;1.30;;
22415;SDS011;12204;50.600;4.608;2023-04-03T03:05:44;2.42;;;1.02;;
22415;SDS011;12204;50.600;4.608;2023-04-03T03:10:49;2.83;;;1.27;;
22415;SDS011;12204;50.600;4.608;2023-04-03T03:15:52;3.17;;;1.20;;
22415;SDS011;12204;50.600;4.608;2023-04-03T03:20:58;2.75;;;1.23;;
22415;SDS011;12204;50.600;4.608;2023-04-03T03:26:05;2.83;;;1.30;;
22415;SDS011;12204;50.600;4.608;2023-04-03T03:31:11;2.42;;;1.10;;
22415;SDS011;12204;50.600;4.608;2023-04-03T03:36:18;2.55;;;1.17;;
22415;SDS011;12204;50.600;4.608;2023-04-03T03:41:21;2.20;;;1.10;;
22415;SDS011;12204;50.600;4.608;2023-04-03T03:46:25;3.00;;;1.10;;
22415;SDS011;12204;50.600;4.608;2023-04-03T03:51:30;3.67;;;1.27;;
22415;SDS011;12204;50.600;4.608;2023-04-03T03:56:34;3.47;;;1.10;;
22415;SDS011;12204;50.600;4.608;2023-04-03T04:01:38;2.00;;;1.00;;
22415;SDS011;12204;50.600;4.608;2023-04-03T04:06:44;3.10;;;1.30;;
22415;SDS011;12204;50.600;4.608;2023-04-03T04:11:47;3.47;;;1.30;;
22415;SDS011;12204;50.600;4.608;2023-04-03T04:16:52;3.15;;;1.20;;
22415;SDS011;12204;50.600;4.608;2023-04-03T04:22:00;2.40;;;1.10;;
22415;SDS011;12204;50.600;4.608;2023-04-03T04:27:06;2.35;;;1.05;;
22415;SDS011;12204;50.600;4.608;2023-04-03T04:32:10;3.15;;;1.10;;
22415;SDS011;12204;50.600;4.608;2023-04-03T04:37:15;2.63;;;1.20;;
22415;SDS011;12204;50.600;4.608;2023-04-03T04:42:20;3.15;;;1.23;;
22415;SDS011;12204;50.600;4.608;2023-04-03T04:47:24;2.05;;;1.02;;
22415;SDS011;12204;50.600;4.608;2023-04-03T04:52:29;2.55;;;1.10;;
22415;SDS011;12204;50.600;4.608;2023-04-03T04:57:33;2.13;;;1.00;;
22415;SDS011;12204;50.600;4.608;2023-04-03T05:02:39;2.63;;;1.05;;
22415;SDS011;12204;50.600;4.608;2023-04-03T05:07:44;3.53;;;1.20;;
22415;SDS011;12204;50.600;4.608;2023-04-03T05:12:48;2.60;;;1.13;;
22415;SDS011;12204;50.600;4.608;2023-04-03T05:17:53;2.75;;;1.17;;
22415;SDS011;12204;50.600;4.608;2023-04-03T05:22:57;2.72;;;1.20;;
22415;SDS011;12204;50.600;4.608;2023-04-03T05:28:01;2.20;;;1.00;;
22415;SDS011;12204;50.600;4.608;2023-04-03T05:33:06;1.98;;;1.08;;
22415;SDS011;12204;50.600;4.608;2023-04-03T05:38:19;1.95;;;1.00;;
22415;SDS011;12204;50.600;4.608;2023-04-03T05:43:22;2.97;;;1.20;;
22415;SDS011;12204;50.600;4.608;2023-04-03T05:48:27;2.83;;;1.20;;
22415;SDS011;12204;50.600;4.608;2023-04-03T05:53:33;3.05;;;1.20;;
22415;SDS011;12204;50.600;4.608;2023-04-03T05:58:40;3.17;;;1.10;;
22415;SDS011;12204;50.600;4.608;2023-04-03T06:03:44;2.65;;;1.10;;
22415;SDS011;12204;50.600;4.608;2023-04-03T06:08:49;2.90;;;0.90;;
22415;SDS011;12204;50.600;4.608;2023-04-03T06:13:53;2.40;;;1.00;;
22415;SDS011;12204;50.600;4.608;2023-04-03T06:18:56;2.63;;;1.05;;
22415;SDS011;12204;50.600;4.608;2023-04-03T06:24:01;2.42;;;1.02;;
22415;SDS011;12204;50.600;4.608;2023-04-03T06:29:06;1.90;;;0.93;;
22415;SDS011;12204;50.600;4.608;2023-04-03T06:34:10;2.65;;;1.00;;
22415;SDS011;12204;50.600;4.608;2023-04-03T06:39:16;2.38;;;1.10;;
22415;SDS011;12204;50.600;4.608;2023-04-03T06:44:23;2.33;;;0.93;;
22415;SDS011;12204;50.600;4.608;2023-04-03T06:49:26;2.63;;;1.00;;
22415;SDS011;12204;50.600;4.608;2023-04-03T06:54:31;3.58;;;1.10;;
22415;SDS011;12204;50.600;4.608;2023-04-03T06:59:35;2.28;;;1.10;;
22415;SDS011;12204;50.600;4.608;2023-04-03T07:04:39;2.63;;;1.10;;
22415;SDS011;12204;50.600;4.608;2023-04-03T07:09:44;2.17;;;1.00;;
22415;SDS011;12204;50.600;4.608;2023-04-03T07:14:49;2.20;;;1.10;;
22415;SDS011;12204;50.600;4.608;2023-04-03T07:19:52;1.90;;;0.90;;
22415;SDS011;12204;50.600;4.608;2023-04-03T07:24:57;2.35;;;1.10;;
22415;SDS011;12204;50.600;4.608;2023-04-03T07:30:01;2.45;;;1.00;;
22415;SDS011;12204;50.600;4.608;2023-04-03T07:35:06;2.15;;;1.00;;
22415;SDS011;12204;50.600;4.608;2023-04-03T07:40:12;2.72;;;1.10;;
22415;SDS011;12204;50.600;4.608;2023-04-03T07:45:15;2.72;;;1.00;;
22415;SDS011;12204;50.600;4.608;2023-04-03T07:50:20;2.85;;;1.10;;
22415;SDS011;12204;50.600;4.608;2023-04-03T07:55:25;2.55;;;1.00;;
22415;SDS011;12204;50.600;4.608;2023-04-03T08:00:29;2.65;;;1.00;;
22415;SDS011;12204;50.600;4.608;2023-04-03T08:05:35;2.25;;;1.08;;
22415;SDS011;12204;50.600;4.608;2023-04-03T08:10:41;2.83;;;1.05;;
22415;SDS011;12204;50.600;4.608;2023-04-03T08:15:45;1.90;;;0.90;;
22415;SDS011;12204;50.600;4.608;2023-04-03T08:20:49;2.83;;;1.10;;
22415;SDS011;12204;50.600;4.608;2023-04-03T08:25:55;2.80;;;1.20;;
22415;SDS011;12204;50.600;4.608;2023-04-03T08:31:01;2.70;;;0.95;;
22415;SDS011;12204;50.600;4.608;2023-04-03T08:36:15;2.25;;;1.00;;
22415;SDS011;12204;50.600;4.608;2023-04-03T08:41:27;2.67;;;1.10;;
22415;SDS011;12204;50.600;4.608;2023-04-03T08:46:40;1.95;;;0.90;;
22415;SDS011;12204;50.600;4.608;2023-04-03T08:52:08;2.95;;;1.10;;
22415;SDS011;12204;50.600;4.608;2023-04-03T08:57:17;2.45;;;1.00;;
22415;SDS011;12204;50.600;4.608;2023-04-03T09:02:33;2.88;;;1.10;;
22415;SDS011;12204;50.600;4.608;2023-04-03T09:07:45;1.90;;;0.93;;
22415;SDS011;12204;50.600;4.608;2023-04-03T09:13:01;2.60;;;1.10;;
22415;SDS011;12204;50.600;4.608;2023-04-03T09:18:12;2.65;;;1.00;;
22415;SDS011;12204;50.600;4.608;2023-04-03T09:23:23;1.70;;;0.90;;
22415;SDS011;12204;50.600;4.608;2023-04-03T09:28:35;3.17;;;1.20;;
22415;SDS011;12204;50.600;4.608;2023-04-03T09:33:51;1.95;;;0.90;;
22415;SDS011;12204;50.600;4.608;2023-04-03T09:39:04;1.90;;;1.08;;
22415;SDS011;12204;50.600;4.608;2023-04-03T09:44:21;1.75;;;0.90;;
22415;SDS011;12204;50.600;4.608;2023-04-03T09:49:27;3.85;;;1.27;;
22415;SDS011;12204;50.600;4.608;2023-04-03T09:54:32;2.55;;;1.10;;
22415;SDS011;12204;50.600;4.608;2023-04-03T09:59:46;1.85;;;1.00;;
22415;SDS011;12204;50.600;4.608;2023-04-03T10:05:00;2.40;;;1.00;;
22415;SDS011;12204;50.600;4.608;2023-04-03T10:10:17;3.30;;;1.10;;
22415;SDS011;12204;50.600;4.608;2023-04-03T10:15:28;2.50;;;1.05;;
22415;SDS011;12204;50.600;4.608;2023-04-03T10:20:39;2.80;;;0.98;;
22415;SDS011;12204;50.600;4.608;2023-04-03T10:25:50;2.50;;;1.10;;
22415;SDS011;12204;50.600;4.608;2023-04-03T10:31:10;2.50;;;1.08;;
22415;SDS011;12204;50.600;4.608;2023-04-03T10:36:26;2.35;;;1.10;;
22415;SDS011;12204;50.600;4.608;2023-04-03T10:41:43;2.33;;;1.05;;
22415;SDS011;12204;50.600;4.608;2023-04-03T10:47:20;2.08;;;0.80;;
22415;SDS011;12204;50.600;4.608;2023-04-03T10:52:31;2.10;;;0.98;;
22415;SDS011;12204;50.600;4.608;2023-04-03T10:57:47;2.05;;;0.98;;
22415;SDS011;12204;50.600;4.608;2023-04-03T11:02:54;2.78;;;1.10;;
22415;SDS011;12204;50.600;4.608;2023-04-03T11:08:03;2.72;;;1.00;;
22415;SDS011;12204;50.600;4.608;2023-04-03T11:13:19;3.13;;;1.00;;
22415;SDS011;12204;50.600;4.608;2023-04-03T11:18:31;2.20;;;0.90;;
22415;SDS011;12204;50.600;4.608;2023-04-03T11:23:43;3.13;;;0.90;;
22415;SDS011;12204;50.600;4.608;2023-04-03T11:34:09;3.03;;;1.05;;
22415;SDS011;12204;50.600;4.608;2023-04-03T11:39:30;3.22;;;1.00;;
22415;SDS011;12204;50.600;4.608;2023-04-03T11:49:56;1.85;;;1.00;;
22415;SDS011;12204;50.600;4.608;2023-04-03T11:55:08;2.85;;;1.10;;
22415;SDS011;12204;50.600;4.608;2023-04-03T12:00:56;2.70;;;1.05;;
22415;SDS011;12204;50.600;4.608;2023-04-03T12:17:35;2.00;;;0.90;;
22415;SDS011;12204;50.600;4.608;2023-04-03T12:22:41;2.83;;;0.98;;
22415;SDS011;12204;50.600;4.608;2023-04-03T12:28:11;2.35;;;1.10;;
22415;SDS011;12204;50.600;4.608;2023-04-03T12:33:20;2.58;;;1.00;;
22415;SDS011;12204;50.600;4.608;2023-04-03T12:44:23;3.13;;;1.00;;
22415;SDS011;12204;50.600;4.608;2023-04-03T12:49:42;2.22;;;1.00;;
22415;SDS011;12204;50.600;4.608;2023-04-03T12:54:48;3.17;;;1.00;;
22415;SDS011;12204;50.600;4.608;2023-04-03T12:59:52;1.85;;;0.90;;
22415;SDS011;12204;50.600;4.608;2023-04-03T13:04:56;1.95;;;0.90;;
22415;SDS011;12204;50.600;4.608;2023-04-03T13:10:15;2.00;;;0.88;;
22415;SDS011;12204;50.600;4.608;2023-04-03T13:15:21;1.88;;;0.95;;
22415;SDS011;12204;50.600;4.608;2023-04-03T13:20:28;2.57;;;1.00;;
22415;SDS011;12204;50.600;4.608;2023-04-03T13:25:37;3.17;;;0.90;;
22415;SDS011;12204;50.600;4.608;2023-04-03T13:30:56;2.28;;;1.00;;
22415;SDS011;12204;50.600;4.608;2023-04-03T13:36:08;1.70;;;0.90;;
22415;SDS011;12204;50.600;4.608;2023-04-03T13:41:25;1.67;;;0.80;;
22415;SDS011;12204;50.600;4.608;2023-04-03T13:46:34;1.95;;;0.80;;
22415;SDS011;12204;50.600;4.608;2023-04-03T13:51:37;2.25;;;0.90;;
22415;SDS011;12204;50.600;4.608;2023-04-03T13:56:43;2.13;;;0.90;;
22415;SDS011;12204;50.600;4.608;2023-04-03T14:01:48;1.70;;;0.93;;
22415;SDS011;12204;50.600;4.608;2023-04-03T14:06:56;1.88;;;0.90;;
22415;SDS011;12204;50.600;4.608;2023-04-03T14:12:02;3.22;;;1.10;;
22415;SDS011;12204;50.600;4.608;2023-04-03T14:17:25;2.00;;;1.00;;
22415;SDS011;12204;50.600;4.608;2023-04-03T14:22:30;2.08;;;0.80;;
22415;SDS011;12204;50.600;4.608;2023-04-03T14:27:38;2.30;;;0.90;;
22415;SDS011;12204;50.600;4.608;2023-04-03T14:32:45;1.52;;;0.80;;
22415;SDS011;12204;50.600;4.608;2023-04-03T14:37:50;1.95;;;0.90;;
22415;SDS011;12204;50.600;4.608;2023-04-03T14:42:56;1.83;;;0.90;;
22415;SDS011;12204;50.600;4.608;2023-04-03T14:48:00;2.47;;;0.90;;
22415;SDS011;12204;50.600;4.608;2023-04-03T14:53:06;1.52;;;0.80;;
22415;SDS011;12204;50.600;4.608;2023-04-03T14:58:13;2.08;;;0.80;;
22415;SDS011;12204;50.600;4.608;2023-04-03T15:03:19;1.90;;;0.80;;
22415;SDS011;12204;50.600;4.608;2023-04-03T15:08:25;2.67;;;0.80;;
22415;SDS011;12204;50.600;4.608;2023-04-03T15:13:32;2.88;;;0.88;;
22415;SDS011;12204;50.600;4.608;2023-04-03T15:18:37;1.55;;;0.68;;
22415;SDS011;12204;50.600;4.608;2023-04-03T15:23:41;2.08;;;0.75;;
22415;SDS011;12204;50.600;4.608;2023-04-03T15:28:46;1.83;;;0.82;;
22415;SDS011;12204;50.600;4.608;2023-04-03T15:33:49;1.42;;;0.77;;
22415;SDS011;12204;50.600;4.608;2023-04-03T15:38:53;1.75;;;0.82;;
22415;SDS011;12204;50.600;4.608;2023-04-03T15:43:58;1.90;;;0.80;;
22415;SDS011;12204;50.600;4.608;2023-04-03T15:49:01;1.42;;;0.80;;
22415;SDS011;12204;50.600;4.608;2023-04-03T15:54:05;1.98;;;0.80;;
22415;SDS011;12204;50.600;4.608;2023-04-03T15:59:10;1.88;;;0.90;;
22415;SDS011;12204;50.600;4.608;2023-04-03T16:04:13;2.45;;;0.90;;
22415;SDS011;12204;50.600;4.608;2023-04-03T16:09:19;1.70;;;0.80;;
22415;SDS011;12204;50.600;4.608;2023-04-03T16:14:24;1.45;;;0.70;;
22415;SDS011;12204;50.600;4.608;2023-04-03T16:19:29;2.15;;;0.80;;
22415;SDS011;12204;50.600;4.608;2023-04-03T16:24:33;1.65;;;0.77;;
22415;SDS011;12204;50.600;4.608;2023-04-03T16:29:38;2.05;;;0.80;;
22415;SDS011;12204;50.600;4.608;2023-04-03T16:34:42;1.30;;;0.70;;
22415;SDS011;12204;50.600;4.608;2023-04-03T16:39:45;2.00;;;0.90;;
22415;SDS011;12204;50.600;4.608;2023-04-03T16:44:50;1.83;;;0.80;;
22415;SDS011;12204;50.600;4.608;2023-04-03T16:49:54;1.80;;;0.80;;
22415;SDS011;12204;50.600;4.608;2023-04-03T16:54:57;1.65;;;0.80;;
22415;SDS011;12204;50.600;4.608;2023-04-03T17:00:02;2.08;;;0.60;;
22415;SDS011;12204;50.600;4.608;2023-04-03T17:05:09;1.92;;;0.80;;
22415;SDS011;12204;50.600;4.608;2023-04-03T17:10:13;2.85;;;0.80;;
22415;SDS011;12204;50.600;4.608;2023-04-03T17:15:19;1.88;;;0.73;;
22415;SDS011;12204;50.600;4.608;2023-04-03T17:20:23;1.45;;;0.60;;
22415;SDS011;12204;50.600;4.608;2023-04-03T17:25:26;1.33;;;0.70;;
22415;SDS011;12204;50.600;4.608;2023-04-03T17:30:31;1.50;;;0.65;;
22415;SDS011;12204;50.600;4.608;2023-04-03T17:35:35;1.08;;;0.60;;
22415;SDS011;12204;50.600;4.608;2023-04-03T17:40:38;1.20;;;0.70;;
22415;SDS011;12204;50.600;4.608;2023-04-03T17:45:45;2.15;;;0.70;;
22415;SDS011;12204;50.600;4.608;2023-04-03T17:50:49;2.40;;;0.90;;
22415;SDS011;12204;50.600;4.608;2023-04-03T17:55:52;1.92;;;0.70;;
22415;SDS011;12204;50.600;4.608;2023-04-03T18:00:57;1.55;;;0.75;;
22415;SDS011;12204;50.600;4.608;2023-04-03T18:06:01;1.73;;;0.65;;
22415;SDS011;12204;50.600;4.608;2023-04-03T18:11:06;1.67;;;0.70;;
22415;SDS011;12204;50.600;4.608;2023-04-03T18:16:12;1.77;;;0.77;;
22415;SDS011;12204;50.600;4.608;2023-04-03T18:21:16;1.15;;;0.60;;
22415;SDS011;12204;50.600;4.608;2023-04-03T18:26:20;1.98;;;0.75;;
22415;SDS011;12204;50.600;4.608;2023-04-03T18:31:30;1.80;;;0.63;;
22415;SDS011;12204;50.600;4.608;2023-04-03T18:36:36;1.75;;;0.73;;
22415;SDS011;12204;50.600;4.608;2023-04-03T18:41:39;2.28;;;0.70;;
22415;SDS011;12204;50.600;4.608;2023-04-03T18:46:45;2.20;;;0.70;;
22415;SDS011;12204;50.600;4.608;2023-04-03T18:51:48;1.60;;;0.70;;
22415;SDS011;12204;50.600;4.608;2023-04-03T18:56:52;1.90;;;0.68;;
22415;SDS011;12204;50.600;4.608;2023-04-03T19:01:57;1.08;;;0.60;;
22415;SDS011;12204;50.600;4.608;2023-04-03T19:07:02;1.38;;;0.70;;
22415;SDS011;12204;50.600;4.608;2023-04-03T19:12:06;1.95;;;0.80;;
22415;SDS011;12204;50.600;4.608;2023-04-03T19:17:11;2.75;;;0.90;;
22415;SDS011;12204;50.600;4.608;2023-04-03T19:22:15;1.95;;;0.68;;
22415;SDS011;12204;50.600;4.608;2023-04-03T19:27:18;1.67;;;0.60;;
22415;SDS011;12204;50.600;4.608;2023-04-03T19:32:23;1.90;;;0.70;;
22415;SDS011;12204;50.600;4.608;2023-04-03T19:37:27;2.45;;;0.70;;
22415;SDS011;12204;50.600;4.608;2023-04-03T19:42:31;1.55;;;0.75;;
22415;SDS011;12204;50.600;4.608;2023-04-03T19:47:38;3.05;;;0.75;;
22415;SDS011;12204;50.600;4.608;2023-04-03T19:52:42;1.70;;;0.60;;
22415;SDS011;12204;50.600;4.608;2023-04-03T19:57:46;1.10;;;0.60;;
22415;SDS011;12204;50.600;4.608;2023-04-03T20:02:50;1.17;;;0.70;;
22415;SDS011;12204;50.600;4.608;2023-04-03T20:07:54;1.92;;;0.70;;
22415;SDS011;12204;50.600;4.608;2023-04-03T20:12:57;1.60;;;0.65;;
22415;SDS011;12204;50.600;4.608;2023-04-03T20:18:03;2.33;;;0.80;;
22415;SDS011;12204;50.600;4.608;2023-04-03T20:23:07;1.20;;;0.70;;
22415;SDS011;12204;50.600;4.608;2023-04-03T20:28:12;1.63;;;0.70;;
22415;SDS011;12204;50.600;4.608;2023-04-03T20:33:18;1.85;;;0.70;;
22415;SDS011;12204;50.600;4.608;2023-04-03T20:38:23;2.30;;;0.70;;
22415;SDS011;12204;50.600;4.608;2023-04-03T20:43:27;0.95;;;0.60;;
22415;SDS011;12204;50.600;4.608;2023-04-03T20:48:32;2.63;;;0.95;;
22415;SDS011;12204;50.600;4.608;2023-04-03T20:53:35;2.17;;;0.70;;
22415;SDS011;12204;50.600;4.608;2023-04-03T20:58:39;1.85;;;0.70;;
22415;SDS011;12204;50.600;4.608;2023-04-03T21:03:49;2.80;;;0.87;;
22415;SDS011;12204;50.600;4.608;2023-04-03T21:20:51;2.03;;;0.70;;
22415;SDS011;12204;50.600;4.608;2023-04-03T21:25:55;1.17;;;0.70;;
22415;SDS011;12204;50.600;4.608;2023-04-03T21:31:01;2.03;;;0.70;;
22415;SDS011;12204;50.600;4.608;2023-04-03T21:36:06;2.17;;;0.75;;
22415;SDS011;12204;50.600;4.608;2023-04-03T21:41:10;1.42;;;0.60;;
22415;SDS011;12204;50.600;4.608;2023-04-03T21:46:14;1.70;;;0.70;;
22415;SDS011;12204;50.600;4.608;2023-04-03T21:51:19;2.42;;;0.90;;
22415;SDS011;12204;50.600;4.608;2023-04-03T21:56:22;1.55;;;0.70;;
22415;SDS011;12204;50.600;4.608;2023-04-03T22:01:26;2.17;;;0.70;;
22415;SDS011;12204;50.600;4.608;2023-04-03T22:06:34;1.70;;;0.70;;
22415;SDS011;12204;50.600;4.608;2023-04-03T22:11:38;1.65;;;0.70;;
22415;SDS011;12204;50.600;4.608;2023-04-03T22:16:46;1.40;;;0.70;;
22415;SDS011;12204;50.600;4.608;2023-04-03T22:21:50;2.53;;;0.80;;
22415;SDS011;12204;50.600;4.608;2023-04-03T22:26:55;1.60;;;0.63;;
22415;SDS011;12204;50.600;4.608;2023-04-03T22:31:58;1.40;;;0.65;;
22415;SDS011;12204;50.600;4.608;2023-04-03T22:37:03;1.77;;;0.80;;
22415;SDS011;12204;50.600;4.608;2023-04-03T22:42:07;1.77;;;0.70;;
22415;SDS011;12204;50.600;4.608;2023-04-03T22:47:10;2.67;;;0.70;;
22415;SDS011;12204;50.600;4.608;2023-04-03T22:52:15;3.28;;;0.70;;
22415;SDS011;12204;50.600;4.608;2023-04-03T22:57:21;1.65;;;0.70;;
22415;SDS011;12204;50.600;4.608;2023-04-03T23:02:24;1.80;;;0.70;;
22415;SDS011;12204;50.600;4.608;2023-04-03T23:07:29;1.40;;;0.60;;
22415;SDS011;12204;50.600;4.608;2023-04-03T23:12:35;2.85;;;0.80;;
22415;SDS011;12204;50.600;4.608;2023-04-03T23:17:39;1.38;;;0.70;;
22415;SDS011;12204;50.600;4.608;2023-04-03T23:22:44;1.55;;;0.70;;
22415;SDS011;12204;50.600;4.608;2023-04-03T23:27:49;1.50;;;0.70;;
22415;SDS011;12204;50.600;4.608;2023-04-03T23:32:53;2.83;;;0.75;;
22415;SDS011;12204;50.600;4.608;2023-04-03T23:37:58;2.85;;;0.88;;
22415;SDS011;12204;50.600;4.608;2023-04-03T23:43:01;2.47;;;0.80;;
22415;SDS011;12204;50.600;4.608;2023-04-03T23:48:05;1.38;;;0.70;;
22415;SDS011;12204;50.600;4.608;2023-04-03T23:53:10;2.15;;;0.70;;
22415;SDS011;12204;50.600;4.608;2023-04-03T23:58:14;1.30;;;0.63;;
